Time;durP1;ratioP1;P1;durP2;ratioP2;P2;SDS_P1;SDS_P2;PMS_P1;PMS_P2;Temp;Humidity;BMP_temperature;BMP_pressure;BME280_temperature;BME280_humidity;BME280_pressure;Samples;Min_cycle;Max_cycle;Signal;HPM_P1;HPM_P2
2022/03/02 00:01:48;;;;;;;;;31.25;30.75;;;;;11.07;42.37;101817.84;5114879;27;45544;-78
2022/03/02 00:04:13;;;;;;;;;31.25;27.00;;;;;11.16;42.21;101828.00;5095789;27;46443;-80
2022/03/02 00:06:39;;;;;;;;;38.50;32.50;;;;;11.10;42.19;101813.47;5109513;27;45423;-79
2022/03/02 00:09:04;;;;;;;;;43.00;27.50;;;;;10.86;42.07;101763.47;5094166;27;45461;-73
2022/03/02 00:11:30;;;;;;;;;39.00;31.25;;;;;11.14;41.68;101816.34;5094333;27;45446;-77
2022/03/02 00:13:55;;;;;;;;;34.50;27.75;;;;;11.18;42.17;101818.28;5094620;27;46097;-78
2022/03/02 00:16:23;;;;;;;;;36.00;29.25;;;;;11.06;42.10;101791.94;5094310;27;45406;-75
2022/03/02 00:18:50;;;;;;;;;36.75;30.50;;;;;10.96;42.10;101773.69;5094359;27;45581;-78
2022/03/02 00:21:15;;;;;;;;;38.75;32.00;;;;;11.09;41.95;101799.19;5110912;27;45623;-77
2022/03/02 00:23:41;;;;;;;;;34.25;30.00;;;;;11.09;42.64;101792.91;5113572;27;46045;-75
2022/03/02 00:26:07;;;;;;;;;39.00;32.75;;;;;11.00;42.02;101780.09;5117402;27;45460;-79
2022/03/02 00:28:32;;;;;;;;;41.50;35.50;;;;;11.13;42.55;101801.13;5117284;27;45425;-73
2022/03/02 00:30:58;;;;;;;;;34.50;30.50;;;;;10.94;42.36;101758.44;5117977;27;45335;-75
2022/03/02 00:33:23;;;;;;;;;43.25;34.00;;;;;10.99;43.03;101773.84;5116382;27;45460;-79
2022/03/02 00:35:49;;;;;;;;;49.25;32.75;;;;;10.92;43.14;101766.38;5097555;27;45656;-78
2022/03/02 00:38:15;;;;;;;;;33.50;29.50;;;;;10.87;43.27;101758.19;5097712;27;45484;-75
2022/03/02 00:40:41;;;;;;;;;42.25;34.50;;;;;11.10;43.22;101797.41;5097551;27;45472;-78
2022/03/02 00:43:08;;;;;;;;;39.75;33.25;;;;;11.04;43.13;101788.31;5097191;27;45491;-77
2022/03/02 00:45:34;;;;;;;;;36.50;33.75;;;;;11.07;43.63;101798.22;5097473;27;45329;-77
2022/03/02 00:48:00;;;;;;;;;36.25;34.00;;;;;10.84;43.60;101759.84;5097320;27;45440;-81
2022/03/02 00:50:26;;;;;;;;;44.00;36.00;;;;;10.78;43.15;101751.56;5111008;27;45599;-78
2022/03/02 00:52:52;;;;;;;;;41.50;32.25;;;;;10.92;43.80;101778.84;5117201;27;45851;-75
2022/03/02 00:55:18;;;;;;;;;40.25;28.75;;;;;10.96;43.25;101789.75;5117095;27;45425;-72
2022/03/02 00:57:44;;;;;;;;;42.50;34.00;;;;;10.98;43.00;101796.06;5117158;27;45692;-77
2022/03/02 01:00:09;;;;;;;;;35.25;27.00;;;;;10.97;43.38;101793.31;5117270;27;45479;-77
2022/03/02 01:02:35;;;;;;;;;34.25;32.00;;;;;10.94;43.17;101796.78;5116993;27;46374;-80
2022/03/02 01:05:01;;;;;;;;;36.25;31.00;;;;;10.91;43.10;101785.06;5116750;27;45394;-78
2022/03/02 01:07:26;;;;;;;;;42.75;33.00;;;;;10.77;43.49;101763.09;5092166;27;45576;-77
2022/03/02 01:09:51;;;;;;;;;39.00;33.50;;;;;10.80;43.33;101761.44;5099462;27;45317;-77
2022/03/02 01:12:17;;;;;;;;;37.75;27.25;;;;;10.71;43.28;101745.03;5096915;27;45615;-74
2022/03/02 01:14:43;;;;;;;;;40.50;32.25;;;;;10.88;43.26;101776.03;5096982;27;45322;-77
2022/03/02 01:17:08;;;;;;;;;42.00;33.00;;;;;10.72;43.25;101756.63;5096941;27;45356;-78
2022/03/02 01:19:33;;;;;;;;;38.50;33.00;;;;;10.88;43.78;101780.50;5097124;27;45341;-78
2022/03/02 01:21:59;;;;;;;;;39.00;32.25;;;;;10.90;43.27;101775.22;5096431;27;45462;-72
2022/03/02 01:24:24;;;;;;;;;43.00;34.75;;;;;10.85;43.11;101773.25;5111968;27;45497;-78
2022/03/02 01:26:50;;;;;;;;;37.00;33.00;;;;;10.69;43.03;101738.69;5084834;27;45394;-76
2022/03/02 01:29:16;;;;;;;;;43.00;32.75;;;;;10.91;43.21;101780.63;5102454;27;45482;-74
2022/03/02 01:31:41;;;;;;;;;52.00;34.00;;;;;10.87;43.02;101770.63;5089611;27;46698;-78
2022/03/02 01:34:07;;;;;;;;;29.00;24.25;;;;;10.82;42.59;101767.78;5096616;27;45413;-76
2022/03/02 01:36:32;;;;;;;;;41.00;31.25;;;;;10.84;43.26;101771.44;5095948;27;45472;-79
2022/03/02 01:38:57;;;;;;;;;36.50;30.50;;;;;10.80;43.06;101772.13;5096697;27;45609;-78
2022/03/02 01:41:25;;;;;;;;;39.00;33.75;;;;;10.78;42.98;101762.25;5096635;27;46126;-79
2022/03/02 01:43:53;;;;;;;;;37.00;32.50;;;;;10.50;43.43;101718.31;5096376;27;45381;-79
2022/03/02 01:46:19;;;;;;;;;43.75;34.50;;;;;10.80;42.93;101757.88;5096389;27;45470;-73
2022/03/02 01:48:45;;;;;;;;;33.25;33.00;;;;;10.75;43.25;101741.63;5096322;27;45496;-77
2022/03/02 01:51:11;;;;;;;;;40.00;33.00;;;;;10.75;43.81;101752.31;5095841;27;45630;-79
2022/03/02 01:53:38;;;;;;;;;36.00;32.00;;;;;10.73;43.11;101753.13;5096441;27;45498;-78
2022/03/02 01:56:03;;;;;;;;;32.25;23.25;;;;;10.47;43.20;101703.06;5096364;27;45402;-77
2022/03/02 01:58:30;;;;;;;;;39.00;31.50;;;;;10.76;43.15;101750.59;5096722;27;45377;-78
2022/03/02 02:00:57;;;;;;;;;40.25;32.75;;;;;10.76;43.16;101737.22;5096044;27;46249;-78
2022/03/02 02:03:22;;;;;;;;;40.50;32.75;;;;;10.64;43.07;101722.50;5096510;27;45565;-78
2022/03/02 02:05:49;;;;;;;;;41.75;33.50;;;;;10.61;43.25;101725.03;5096179;27;45430;-79
2022/03/02 02:08:14;;;;;;;;;35.25;33.00;;;;;10.37;43.00;101676.81;5096495;27;45277;-76
2022/03/02 02:10:39;;;;;;;;;47.00;35.50;;;;;10.78;42.91;101740.88;5095444;27;46502;-79
2022/03/02 02:13:05;;;;;;;;;43.00;30.50;;;;;10.75;42.72;101730.94;5096066;27;45425;-72
2022/03/02 02:15:30;;;;;;;;;39.25;32.75;;;;;10.72;42.94;101722.78;5096044;27;45390;-72
2022/03/02 02:17:56;;;;;;;;;39.00;35.75;;;;;10.77;43.53;101731.91;5096579;27;46266;-78
2022/03/02 02:20:23;;;;;;;;;42.50;35.75;;;;;10.69;43.14;101714.66;5095978;27;46296;-78
2022/03/02 02:22:49;;;;;;;;;38.00;35.25;;;;;10.72;43.66;101722.78;5089866;27;45645;-79
2022/03/02 02:25:15;;;;;;;;;38.50;32.75;;;;;10.68;44.09;101719.09;5095544;27;45472;-76
2022/03/02 02:27:44;;;;;;;;;43.00;34.50;;;;;10.70;43.79;101722.72;5095922;27;45363;-74
2022/03/02 02:30:12;;;;;;;;;43.75;35.75;;;;;10.46;43.80;101682.56;5096042;27;45508;-75
2022/03/02 02:32:40;;;;;;;;;47.50;34.75;;;;;10.73;43.68;101713.94;5096209;27;45451;-67
2022/03/02 02:35:08;;;;;;;;;40.50;35.75;;;;;10.71;44.23;101710.31;5095611;27;45404;-78
2022/03/02 02:37:35;;;;;;;;;40.25;35.25;;;;;10.70;43.91;101704.03;5095858;27;45543;-75
2022/03/02 02:40:16;;;;;;;;;49.50;37.00;;;;;10.69;43.92;101710.25;5088512;27;47238;-79
2022/03/02 02:42:44;;;;;;;;;46.75;34.00;;;;;10.67;44.23;101708.34;5095283;27;45362;-78
2022/03/02 02:45:14;;;;;;;;;40.00;33.75;;;;;10.57;44.71;101682.09;5099181;27;45565;-76
2022/03/02 02:47:40;;;;;;;;;45.50;37.00;;;;;10.32;44.78;101641.00;5096961;27;45570;-76
2022/03/02 02:50:23;;;;;;;;;48.75;37.25;;;;;10.39;44.66;101653.75;5115129;27;45428;-76
2022/03/02 02:52:51;;;;;;;;;49.00;35.75;;;;;10.62;44.97;101684.09;5115075;27;45626;-76
2022/03/02 02:55:17;;;;;;;;;41.00;34.00;;;;;10.41;44.50;101646.72;5115005;27;45435;-77
2022/03/02 02:57:42;;;;;;;;;50.00;34.75;;;;;10.57;44.61;101698.13;5115207;27;45465;-77
2022/03/02 03:00:12;;;;;;;;;45.25;37.00;;;;;10.31;44.99;101624.03;5115133;27;45416;-77
2022/03/02 03:02:38;;;;;;;;;47.00;36.00;;;;;10.43;44.90;101641.44;5114965;27;45348;-79
2022/03/02 03:05:03;;;;;;;;;39.00;32.00;;;;;10.29;45.01;101625.69;5115196;27;45436;-81
2022/03/02 03:07:29;;;;;;;;;41.50;36.25;;;;;10.52;44.78;101660.50;5097881;27;45353;-78
2022/03/02 03:09:54;;;;;;;;;44.75;36.50;;;;;10.31;44.81;101634.72;5095153;27;45989;-76
2022/03/02 03:12:20;;;;;;;;;42.75;35.00;;;;;10.27;45.28;101629.19;5094983;27;45507;-79
2022/03/02 03:14:45;;;;;;;;;35.75;32.00;;;;;10.48;44.96;101658.59;5093309;27;45478;-77
2022/03/02 03:17:10;;;;;;;;;43.25;35.25;;;;;10.20;45.10;101616.44;5098724;27;45502;-78
2022/03/02 03:19:36;;;;;;;;;50.00;36.25;;;;;10.45;45.28;101656.69;5104421;27;45731;-78
2022/03/02 03:22:06;;;;;;;;;53.25;39.75;;;;;10.01;45.21;101583.59;5114775;27;45435;-74
2022/03/02 03:24:33;;;;;;;;;43.25;34.50;;;;;10.37;45.68;101652.78;5114743;27;45358;-80
2022/03/02 03:26:59;;;;;;;;;45.25;36.00;;;;;10.05;46.36;101606.00;5115121;27;45417;-79
2022/03/02 03:29:24;;;;;;;;;44.50;36.50;;;;;9.83;46.26;101570.38;5115270;27;46096;-77
2022/03/02 03:31:50;;;;;;;;;42.25;35.25;;;;;10.13;46.07;101634.84;5115069;27;45472;-78
2022/03/02 03:34:15;;;;;;;;;45.25;34.75;;;;;10.31;45.93;101656.09;5115275;27;45495;-79
2022/03/02 03:36:41;;;;;;;;;44.00;34.00;;;;;10.31;45.63;101658.75;5115323;27;45636;-76
2022/03/02 03:39:07;;;;;;;;;39.75;36.00;;;;;10.29;46.06;101657.75;5114722;27;45573;-78
2022/03/02 03:41:32;;;;;;;;;46.25;35.25;;;;;10.28;45.79;101658.63;5096037;27;45451;-77
2022/03/02 03:43:58;;;;;;;;;42.25;36.00;;;;;10.31;45.74;101660.50;5114844;27;45452;-80
2022/03/02 03:46:23;;;;;;;;;47.75;37.50;;;;;10.30;45.68;101656.00;5115378;27;45475;-80
2022/03/02 03:48:49;;;;;;;;;50.25;36.25;;;;;10.30;45.65;101650.66;5114463;27;46567;-79
2022/03/02 03:51:15;;;;;;;;;49.50;33.50;;;;;10.03;45.55;101603.28;5114093;27;45387;-75
2022/03/02 03:53:40;;;;;;;;;42.25;36.00;;;;;10.22;45.74;101630.75;5114443;27;45467;-77
2022/03/02 03:56:06;;;;;;;;;49.75;37.50;;;;;10.30;46.08;101645.34;5114598;27;45351;-77
2022/03/02 03:58:31;;;;;;;;;47.50;35.25;;;;;10.21;46.00;101634.25;5114504;27;45675;-79
2022/03/02 04:00:58;;;;;;;;;42.75;36.00;;;;;10.01;45.54;101591.59;5117680;27;45403;-77
2022/03/02 04:03:24;;;;;;;;;37.50;32.25;;;;;10.26;46.43;101635.34;5117975;27;45432;-80
2022/03/02 04:05:49;;;;;;;;;43.25;35.25;;;;;10.05;46.11;101600.66;5118010;27;45597;-72
2022/03/02 04:08:15;;;;;;;;;45.25;35.75;;;;;10.28;46.03;101636.34;5117874;27;45823;-78
2022/03/02 04:10:40;;;;;;;;;46.00;36.50;;;;;10.09;45.82;101607.94;5117614;27;45405;-78
2022/03/02 04:13:06;;;;;;;;;43.00;36.50;;;;;10.27;46.06;101632.75;5099207;27;45339;-79
2022/03/02 04:15:32;;;;;;;;;44.25;33.25;;;;;10.26;45.97;101638.03;5118278;27;45301;-79
2022/03/02 04:17:57;;;;;;;;;37.00;32.25;;;;;10.14;45.54;101623.31;5117259;27;46334;-79
2022/03/02 04:20:23;;;;;;;;;39.25;34.00;;;;;10.06;45.82;101614.06;5117360;27;45436;-78
2022/03/02 04:22:48;;;;;;;;;43.25;35.00;;;;;10.26;45.60;101632.69;5117700;27;45806;-78
2022/03/02 04:25:13;;;;;;;;;41.75;37.25;;;;;10.25;45.56;101634.44;5117493;27;45413;-78
2022/03/02 04:27:40;;;;;;;;;39.75;34.00;;;;;10.06;45.58;101603.38;5117090;27;45430;-74
2022/03/02 04:30:06;;;;;;;;;49.00;36.50;;;;;9.83;45.71;101561.47;5117682;27;45474;-77
2022/03/02 04:32:31;;;;;;;;;44.00;36.00;;;;;9.98;45.87;101591.47;5099200;27;45464;-78
2022/03/02 04:34:57;;;;;;;;;46.75;35.75;;;;;10.12;45.94;101617.00;5117641;27;45293;-74
2022/03/02 04:37:22;;;;;;;;;31.50;30.50;;;;;9.86;46.47;101572.28;5117372;27;46195;-78
2022/03/02 04:39:47;;;;;;;;;40.00;33.25;;;;;10.17;46.50;101616.28;5103939;27;45337;-73
2022/03/02 04:42:13;;;;;;;;;42.00;35.75;;;;;9.73;46.51;101547.75;5097466;27;45393;-79
2022/03/02 04:44:38;;;;;;;;;50.00;37.00;;;;;9.94;45.84;101573.50;5097430;27;45690;-71
2022/03/02 04:47:04;;;;;;;;;53.25;39.00;;;;;10.08;46.20;101596.38;5102688;27;45286;-77
2022/03/02 04:49:30;;;;;;;;;40.50;33.25;;;;;10.06;46.66;101590.03;5103621;27;45463;-76
2022/03/02 04:51:55;;;;;;;;;47.25;35.75;;;;;10.12;46.37;101600.97;5117356;27;46086;-76
2022/03/02 04:57:06;;;;;;;;;39.00;34.00;;;;;9.93;45.90;101559.25;5117019;27;45739;-76
2022/03/02 04:59:32;;;;;;;;;40.50;36.25;;;;;10.17;46.02;101605.63;5117043;27;46069;-76
2022/03/02 05:01:57;;;;;;;;;44.50;33.00;;;;;10.17;46.22;101603.84;5116922;27;45457;-78
2022/03/02 05:04:23;;;;;;;;;37.50;31.50;;;;;10.14;46.51;101599.28;5117221;27;45314;-76
2022/03/02 05:06:48;;;;;;;;;45.25;35.75;;;;;9.98;46.27;101582.56;5116520;27;45696;-78
2022/03/02 05:09:13;;;;;;;;;46.25;39.25;;;;;10.13;46.06;101597.47;5116291;27;45322;-76
2022/03/02 05:11:39;;;;;;;;;42.00;36.25;;;;;9.88;46.18;101551.88;5115428;27;45597;-79
2022/03/02 05:14:04;;;;;;;;;43.75;35.50;;;;;9.93;46.20;101569.00;5117272;27;45702;-78
2022/03/02 05:16:30;;;;;;;;;45.50;33.50;;;;;10.04;45.89;101589.06;5116448;27;45360;-80
2022/03/02 05:18:55;;;;;;;;;49.00;38.75;;;;;10.09;45.86;101598.16;5080889;27;45531;-79
2022/03/02 05:21:21;;;;;;;;;41.25;33.75;;;;;10.01;45.80;101591.59;5113569;27;45358;-79
2022/03/02 05:23:46;;;;;;;;;43.75;35.25;;;;;9.54;45.60;101499.78;5116790;27;45279;-77
2022/03/02 05:26:11;;;;;;;;;41.50;34.75;;;;;10.07;45.79;101602.53;5116338;27;45642;-78
2022/03/02 05:28:37;;;;;;;;;46.25;37.00;;;;;9.88;46.49;101571.50;5116743;27;45305;-76
2022/03/02 05:31:02;;;;;;;;;46.00;35.50;;;;;9.96;45.89;101577.16;5117066;27;45461;-79
2022/03/02 05:33:28;;;;;;;;;48.00;34.25;;;;;10.02;46.51;101590.75;5116958;27;45378;-77
2022/03/02 05:35:54;;;;;;;;;40.75;35.75;;;;;9.94;46.54;101569.06;5114912;27;46013;-75
2022/03/02 05:38:19;;;;;;;;;43.00;35.75;;;;;10.02;46.57;101572.06;5096663;27;45454;-77
2022/03/02 05:40:44;;;;;;;;;43.25;34.75;;;;;9.86;45.78;101554.50;5096448;27;45342;-79
2022/03/02 05:43:10;;;;;;;;;24.50;23.25;;;;;9.94;46.60;101561.06;5096630;27;45366;-79
2022/03/02 05:45:35;;;;;;;;;34.75;32.75;;;;;9.90;46.67;101550.19;5094548;27;46158;-78
2022/03/02 05:48:00;;;;;;;;;41.00;33.75;;;;;9.89;46.54;101553.72;5078001;27;45520;-78
2022/03/02 05:50:26;;;;;;;;;37.50;33.25;;;;;10.03;46.13;101575.63;5096215;27;45326;-79
2022/03/02 05:52:52;;;;;;;;;47.25;35.75;;;;;9.99;46.18;101563.03;5096456;27;45428;-79
2022/03/02 05:55:17;;;;;;;;;45.25;35.75;;;;;9.95;45.67;101562.00;5096256;27;46065;-72
2022/03/02 05:57:42;;;;;;;;;39.00;32.50;;;;;9.98;46.44;101563.88;5096288;27;45567;-75
2022/03/02 06:00:08;;;;;;;;;45.25;33.50;;;;;10.03;46.21;101578.31;5096562;27;45878;-78
2022/03/02 06:02:34;;;;;;;;;44.00;35.25;;;;;9.27;46.42;101440.81;5095598;27;45440;-78
2022/03/02 06:04:59;;;;;;;;;32.50;31.00;;;;;10.01;46.37;101572.91;5098507;27;45511;-79
2022/03/02 06:07:25;;;;;;;;;43.50;36.00;;;;;9.98;45.75;101572.78;5095843;27;45381;-80
2022/03/02 06:09:50;;;;;;;;;49.25;37.25;;;;;9.96;45.90;101570.06;5095620;27;45362;-77
2022/03/02 06:12:17;;;;;;;;;38.25;34.75;;;;;9.96;46.03;101580.75;5096162;27;45312;-75
2022/03/02 06:14:42;;;;;;;;;49.00;38.50;;;;;9.90;45.99;101571.53;5095494;27;45559;-75
2022/03/02 06:17:09;;;;;;;;;44.75;34.75;;;;;9.97;46.41;101581.66;5095737;27;45293;-76
2022/03/02 06:19:35;;;;;;;;;40.75;34.50;;;;;9.90;45.78;101558.19;5095706;27;45361;-77
2022/03/02 06:22:03;;;;;;;;;47.00;36.50;;;;;9.90;46.37;101561.78;5095516;27;45447;-72
2022/03/02 06:24:30;;;;;;;;;38.00;30.75;;;;;9.98;46.23;101572.78;5094838;27;45704;-76
2022/03/02 06:26:55;;;;;;;;;39.00;35.75;;;;;9.81;46.46;101536.47;5076193;27;45428;-76
2022/03/02 06:29:21;;;;;;;;;46.75;36.75;;;;;10.00;46.53;101568.44;5095997;27;45385;-75
2022/03/02 06:31:46;;;;;;;;;46.75;38.25;;;;;9.80;46.29;101532.91;5096257;27;45454;-79
2022/03/02 06:34:11;;;;;;;;;43.75;33.50;;;;;9.86;46.27;101543.81;5095610;27;46899;-77
2022/03/02 06:36:37;;;;;;;;;42.50;30.75;;;;;9.87;46.61;101548.31;5095577;27;45392;-78
2022/03/02 06:39:03;;;;;;;;;31.75;29.00;;;;;9.90;45.91;101552.84;5094870;27;45504;-76
2022/03/02 06:41:38;;;;;;;;;41.25;32.75;;;;;10.01;46.28;101570.22;5102477;27;45551;-71
2022/03/02 06:44:09;;;;;;;;;37.50;31.75;;;;;10.03;45.96;101573.91;5108908;27;46155;-74
2022/03/02 06:46:43;;;;;;;;;56.25;39.50;;;;;9.87;45.66;101548.31;5094492;27;45408;-79
2022/03/02 06:49:23;;;;;;;;;48.25;36.25;;;;;10.00;46.30;101575.50;5115192;27;45538;-74
2022/03/02 06:51:57;;;;;;;;;44.75;36.50;;;;;9.85;45.94;101554.41;5097147;27;45471;-77
2022/03/02 06:54:30;;;;;;;;;52.00;34.75;;;;;9.89;46.16;101562.63;5114967;27;45353;-78
2022/03/02 06:57:04;;;;;;;;;49.25;38.25;;;;;10.04;46.15;101580.16;5097178;27;46188;-78
2022/03/02 06:59:40;;;;;;;;;44.75;38.00;;;;;10.02;46.15;101577.41;5115645;27;45435;-81
2022/03/02 07:02:07;;;;;;;;;54.75;41.25;;;;;10.00;45.94;101583.53;5116313;27;45456;-71
2022/03/02 07:04:43;;;;;;;;;56.25;42.00;;;;;9.94;45.89;101576.19;5115150;27;46745;-79
2022/03/02 07:07:11;;;;;;;;;41.00;35.75;;;;;9.78;45.79;101550.59;5115335;27;45401;-77
2022/03/02 07:09:38;;;;;;;;;55.00;41.50;;;;;9.97;45.80;101589.66;5114543;27;46046;-79
2022/03/02 07:12:05;;;;;;;;;55.75;39.75;;;;;9.92;46.09;101576.09;5115049;27;45552;-78
2022/03/02 07:14:33;;;;;;;;;55.25;43.75;;;;;9.78;46.42;101551.53;5114473;27;45991;-78
2022/03/02 07:17:00;;;;;;;;;43.50;32.00;;;;;9.96;45.83;101578.09;5114535;27;45333;-78
2022/03/02 07:19:26;;;;;;;;;43.50;36.25;;;;;9.91;46.35;101573.38;5114796;27;45389;-79
2022/03/02 07:21:54;;;;;;;;;47.50;34.50;;;;;10.00;46.36;101592.47;5116137;27;45336;-77
2022/03/02 07:24:25;;;;;;;;;42.75;37.00;;;;;9.97;46.19;101584.31;5114160;27;46127;-76
2022/03/02 07:26:52;;;;;;;;;52.75;37.75;;;;;9.70;46.52;101542.28;5114461;27;45434;-78
2022/03/02 07:29:20;;;;;;;;;50.00;40.25;;;;;9.73;46.54;101549.47;5114172;27;45507;-78
2022/03/02 07:31:46;;;;;;;;;53.50;38.25;;;;;9.98;45.70;101587.88;5107858;27;45415;-78
2022/03/02 07:34:14;;;;;;;;;41.75;35.75;;;;;9.81;46.02;101557.81;5095739;27;45637;-78
2022/03/02 07:36:41;;;;;;;;;44.00;36.00;;;;;9.84;45.77;101560.63;5094950;27;46093;-73
2022/03/02 07:39:08;;;;;;;;;49.50;36.75;;;;;10.08;45.55;101588.34;5118799;27;45423;-78
2022/03/02 07:41:34;;;;;;;;;51.75;40.00;;;;;10.14;45.70;101591.25;5118941;27;45641;-77
2022/03/02 07:43:59;;;;;;;;;45.75;34.75;;;;;10.11;44.57;101592.91;5117829;27;45480;-79
2022/03/02 07:46:28;;;;;;;;;46.00;36.25;;;;;10.10;45.25;101583.97;5117984;27;45438;-79
2022/03/02 07:48:53;;;;;;;;;48.75;38.50;;;;;10.02;45.00;101574.75;5104965;27;45322;-77
2022/03/02 07:51:20;;;;;;;;;42.50;31.75;;;;;10.06;44.46;101575.78;5099088;27;45347;-79
2022/03/02 07:53:49;;;;;;;;;47.75;36.25;;;;;9.95;44.03;101545.97;5117338;27;45401;-77
2022/03/02 07:56:16;;;;;;;;;38.50;33.75;;;;;10.18;43.58;101580.72;5098287;27;45528;-78
2022/03/02 07:58:42;;;;;;;;;46.00;33.00;;;;;10.11;44.05;101569.81;5118207;27;45469;-77
2022/03/02 08:01:12;;;;;;;;;48.00;36.75;;;;;9.79;43.27;101517.72;5119173;27;45498;-77
2022/03/02 08:03:41;;;;;;;;;44.25;31.75;;;;;9.95;43.88;101556.66;5117655;27;47344;-77
2022/03/02 08:06:07;;;;;;;;;36.00;32.75;;;;;9.85;43.54;101543.75;5117165;27;45353;-74
2022/03/02 08:08:37;;;;;;;;;38.75;30.25;;;;;9.95;43.09;101557.56;5110889;27;45277;-80
2022/03/02 08:11:03;;;;;;;;;43.00;33.50;;;;;10.04;43.86;101580.16;5079140;27;45530;-78
2022/03/02 08:13:30;;;;;;;;;43.25;35.50;;;;;10.02;44.04;101577.41;5097538;27;45524;-77
2022/03/02 08:15:56;;;;;;;;;39.25;33.00;;;;;10.11;44.07;101576.88;5097433;27;45494;-75
2022/03/02 08:18:21;;;;;;;;;27.50;23.75;;;;;9.77;43.85;101496.31;5096988;27;45478;-77
2022/03/02 08:20:52;;;;;;;;;36.75;29.75;;;;;10.33;43.20;101579.63;5097508;27;45478;-78
2022/03/02 08:23:19;;;;;;;;;37.50;32.50;;;;;10.37;42.64;101569.97;5097227;27;46167;-78
2022/03/02 08:25:46;;;;;;;;;34.50;28.75;;;;;10.32;43.04;101542.16;5097064;27;45503;-76
2022/03/02 08:28:15;;;;;;;;;40.75;35.00;;;;;10.25;42.97;101508.94;5097438;27;45474;-81
2022/03/02 08:30:41;;;;;;;;;42.00;35.75;;;;;10.56;42.37;101555.59;5097639;27;45429;-79
2022/03/02 08:33:08;;;;;;;;;49.25;35.00;;;;;10.49;41.92;101535.75;5097428;27;45464;-80
2022/03/02 08:35:39;;;;;;;;;45.50;35.75;;;;;10.36;42.47;101543.19;5097710;27;45404;-77
2022/03/02 08:38:04;;;;;;;;;44.50;35.75;;;;;10.35;42.76;101552.06;5097789;27;45434;-77
2022/03/02 08:40:29;;;;;;;;;47.25;34.00;;;;;10.51;43.06;101581.22;5103302;27;45428;-78
2022/03/02 08:42:57;;;;;;;;;46.75;35.75;;;;;10.54;42.49;101584.00;5098769;27;46399;-80
2022/03/02 08:45:23;;;;;;;;;40.50;35.50;;;;;10.37;42.68;101561.94;5116909;27;45515;-79
2022/03/02 08:47:49;;;;;;;;;44.75;34.75;;;;;10.42;42.97;101563.03;5117608;27;45400;-74
2022/03/02 08:50:15;;;;;;;;;47.75;35.50;;;;;10.50;41.76;101558.91;5118114;27;45495;-79
2022/03/02 08:52:40;;;;;;;;;40.25;34.75;;;;;10.59;42.26;101563.75;5116791;27;45412;-76
2022/03/02 08:55:11;;;;;;;;;41.75;33.75;;;;;10.68;42.22;101560.50;5100416;27;45353;-80
2022/03/02 08:57:42;;;;;;;;;29.50;23.00;;;;;10.93;42.03;101582.84;5097411;27;45736;-79
2022/03/02 09:00:10;;;;;;;;;51.75;39.00;;;;;11.03;41.93;101576.97;5096931;27;45438;-75
2022/03/02 09:02:37;;;;;;;;;46.00;36.75;;;;;11.10;41.85;101568.31;5097490;27;45495;-79
2022/03/02 09:05:05;;;;;;;;;45.00;35.00;;;;;11.16;41.48;101568.56;5098520;27;45247;-74
2022/03/02 09:07:30;;;;;;;;;46.00;35.00;;;;;10.86;41.68;101520.22;5098965;27;45518;-80
2022/03/02 09:09:58;;;;;;;;;46.00;37.00;;;;;11.21;41.36;101580.34;5097397;27;45366;-76
2022/03/02 09:12:23;;;;;;;;;38.00;31.50;;;;;11.18;41.33;101560.59;5096895;27;45394;-77
2022/03/02 09:14:49;;;;;;;;;48.75;37.00;;;;;11.23;41.44;101559.91;5096735;27;45405;-80
2022/03/02 09:17:19;;;;;;;;;41.00;35.50;;;;;11.27;41.25;101552.94;5096682;27;45428;-77
2022/03/02 09:19:45;;;;;;;;;48.50;34.25;;;;;11.24;40.98;101540.34;5096816;27;45523;-77
2022/03/02 09:22:11;;;;;;;;;44.75;35.00;;;;;11.29;40.72;101552.97;5096438;27;46247;-78
2022/03/02 09:24:39;;;;;;;;;41.00;34.25;;;;;11.34;40.59;101549.59;5096062;27;45440;-80
2022/03/02 09:27:07;;;;;;;;;43.25;34.25;;;;;11.35;40.66;101546.09;5096619;27;45597;-78
2022/03/02 09:29:33;;;;;;;;;38.75;33.00;;;;;11.30;40.81;101538.72;5103716;27;45561;-72
2022/03/02 09:32:03;;;;;;;;;43.75;33.75;;;;;11.12;40.47;101517.56;5096232;27;45855;-77
2022/03/02 09:34:30;;;;;;;;;47.25;36.00;;;;;11.38;40.59;101551.56;5095518;27;45366;-77
2022/03/02 09:36:57;;;;;;;;;41.50;34.75;;;;;11.42;40.29;101545.44;5096245;27;45367;-78
2022/03/02 09:39:26;;;;;;;;;46.25;35.00;;;;;11.31;40.40;101532.53;5098655;27;45476;-80
2022/03/02 09:42:01;;;;;;;;;48.75;36.25;;;;;11.46;40.34;101548.22;5096665;27;46094;-74
2022/03/02 09:44:45;;;;;;;;;43.75;37.75;;;;;11.40;41.30;101560.53;5099441;27;45299;-79
2022/03/02 09:47:21;;;;;;;;;40.50;34.50;;;;;11.55;40.86;101551.22;5116045;27;45523;-72
2022/03/02 09:49:54;;;;;;;;;45.75;37.75;;;;;11.22;40.63;101476.94;5110337;27;45445;-80
2022/03/02 09:52:21;;;;;;;;;44.75;34.75;;;;;11.71;40.28;101550.88;5115894;27;45385;-77
2022/03/02 09:54:52;;;;;;;;;47.25;36.50;;;;;11.54;40.19;101514.63;5097192;27;45557;-79
2022/03/02 09:57:19;;;;;;;;;46.25;36.75;;;;;11.70;40.20;101549.09;5115098;27;45443;-81
2022/03/02 09:59:51;;;;;;;;;52.50;39.75;;;;;11.54;40.46;101523.53;5116270;27;45380;-78
2022/03/02 10:02:29;;;;;;;;;45.50;34.50;;;;;11.59;40.64;101539.78;5115484;27;45705;-80
2022/03/02 10:04:58;;;;;;;;;43.75;35.50;;;;;11.36;40.39;101489.03;5115950;27;45339;-77
2022/03/02 10:07:29;;;;;;;;;44.00;33.00;;;;;11.50;40.28;101508.25;5115677;27;45389;-76
2022/03/02 10:10:17;;;;;;;;;40.00;35.50;;;;;11.64;40.24;101535.47;5115803;27;45351;-80
2022/03/02 10:12:43;;;;;;;;;41.25;31.00;;;;;11.66;40.16;101544.47;5097154;27;47667;-78
2022/03/02 10:15:12;;;;;;;;;49.00;42.00;;;;;11.52;40.32;101502.97;5096711;27;45618;-79
2022/03/02 10:17:41;;;;;;;;;50.50;36.00;;;;;11.67;40.79;101516.84;5115451;27;45286;-78
2022/03/02 10:20:11;;;;;;;;;48.50;37.25;;;;;11.81;40.12;101536.06;5103138;27;45498;-74
2022/03/02 10:22:39;;;;;;;;;49.50;37.00;;;;;11.89;40.36;101537.22;5102197;27;45479;-77
2022/03/02 10:25:15;;;;;;;;;40.25;32.50;;;;;11.87;39.88;101517.53;5095130;27;45418;-80
2022/03/02 10:27:59;;;;;;;;;50.75;38.00;;;;;11.97;39.63;101540.19;5109278;27;45462;-78
2022/03/02 10:30:46;;;;;;;;;41.25;28.50;;;;;11.96;39.91;101528.59;5115702;27;45681;-70
2022/03/02 10:33:17;;;;;;;;;47.75;35.75;;;;;12.07;39.31;101530.72;5114535;27;46570;-75
2022/03/02 10:36:08;;;;;;;;;45.75;36.25;;;;;11.97;39.44;101506.28;5103416;27;45397;-79
2022/03/02 10:38:49;;;;;;;;;39.00;32.25;;;;;11.90;39.54;101474.78;5115150;27;45636;-75
2022/03/02 10:41:19;;;;;;;;;39.75;30.50;;;;;12.22;39.41;101519.56;5118958;27;45461;-76
2022/03/02 10:43:56;;;;;;;;;44.25;36.25;;;;;12.31;39.30;101515.41;5096660;27;45994;-72
2022/03/02 10:46:24;;;;;;;;;44.75;34.25;;;;;12.33;38.38;101499.41;5115213;27;45635;-78
2022/03/02 10:49:17;;;;;;;;;42.25;35.75;;;;;12.31;38.96;101511.84;5115067;27;45464;-79
2022/03/02 10:51:45;;;;;;;;;50.75;38.00;;;;;11.96;38.92;101445.56;5115264;27;45611;-76
2022/03/02 10:54:16;;;;;;;;;50.50;38.00;;;;;12.41;39.22;101488.94;5095890;27;46658;-78
2022/03/02 10:56:43;;;;;;;;;44.25;33.50;;;;;12.48;38.45;101478.41;5114996;27;45488;-79
2022/03/02 10:59:16;;;;;;;;;46.25;36.50;;;;;12.57;37.98;101483.13;5099140;27;45500;-78
2022/03/02 11:01:42;;;;;;;;;42.25;35.00;;;;;12.60;39.10;101471.63;5095083;27;45504;-78
2022/03/02 11:04:08;;;;;;;;;48.25;39.25;;;;;12.73;38.76;101469.31;5094640;27;45895;-75
2022/03/02 11:06:35;;;;;;;;;50.75;41.25;;;;;12.82;37.95;101463.34;5095211;27;45533;-79
2022/03/02 11:09:04;;;;;;;;;103.67;93.00;;;;;12.65;37.65;101419.03;5094690;27;45452;-75
2022/03/02 11:11:33;;;;;;;;;43.50;36.00;;;;;13.08;38.42;101480.16;5094949;27;45313;-73
2022/03/02 11:13:58;;;;;;;;;53.75;43.75;;;;;12.77;37.87;101410.44;5094389;27;45456;-74
2022/03/02 11:16:25;;;;;;;;;44.00;36.00;;;;;13.24;37.19;101475.22;5094519;27;45412;-77